createdAt,value
2022-10-04T00:02:22.985Z,17.20
2022-10-04T00:05:00.092Z,21.25
2022-10-04T00:07:33.405Z,22.85
2022-10-04T00:10:07.354Z,16.17
2022-10-04T00:12:39.719Z,16.33
2022-10-04T00:15:21.749Z,18.42
2022-10-04T00:18:08.004Z,17.95
2022-10-04T00:21:03.480Z,18.15
2022-10-04T00:23:47.982Z,18.90
2022-10-04T00:26:50.061Z,16.15
2022-10-04T00:29:35.990Z,12.70
2022-10-04T00:32:28.308Z,17.33
2022-10-04T00:34:58.415Z,18.95
2022-10-04T00:37:28.503Z,16.27
2022-10-04T00:40:11.878Z,15.50
2022-10-04T00:42:49.621Z,15.30
2022-10-04T00:45:30.971Z,16.70
2022-10-04T00:48:30.455Z,14.77
2022-10-04T00:51:10.316Z,13.77
2022-10-04T00:53:45.986Z,13.32
2022-10-04T00:56:22.334Z,15.85
2022-10-04T00:59:19.388Z,14.20
2022-10-04T01:01:51.031Z,13.82
2022-10-04T01:04:29.881Z,13.82
2022-10-04T01:07:00.973Z,13.52
2022-10-04T01:09:31.488Z,15.55
2022-10-04T01:12:05.720Z,14.80
2022-10-04T01:14:47.525Z,14.18
2022-10-04T01:17:15.916Z,15.27
2022-10-04T01:19:53.635Z,12.93
2022-10-04T01:22:38.993Z,13.65
2022-10-04T01:25:08.693Z,15.93
2022-10-04T01:27:42.069Z,12.77
2022-10-04T01:30:14.456Z,14.07
2022-10-04T01:32:45.101Z,13.23
2022-10-04T01:35:16.633Z,14.20
2022-10-04T01:37:46.646Z,11.40
2022-10-04T01:40:15.209Z,12.20
2022-10-04T01:42:46.639Z,13.35
2022-10-04T01:45:23.167Z,14.95
2022-10-04T01:47:57.196Z,13.57
2022-10-04T01:50:33.709Z,11.90
2022-10-04T01:53:13.833Z,14.25
2022-10-04T01:55:45.447Z,14.10
2022-10-04T01:58:18.224Z,11.70
2022-10-04T02:00:53.201Z,14.77
2022-10-04T02:03:28.249Z,10.75
2022-10-04T02:06:00.320Z,11.18
2022-10-04T02:08:32.736Z,13.85
2022-10-04T02:11:02.676Z,11.88
2022-10-04T02:13:41.308Z,9.38
2022-10-04T02:16:12.893Z,12.13
2022-10-04T02:18:44.191Z,14.35
2022-10-04T02:21:15.061Z,11.23
2022-10-04T02:23:47.456Z,10.05
2022-10-04T02:26:15.995Z,9.10
2022-10-04T02:28:44.808Z,10.48
2022-10-04T02:31:31.231Z,9.80
2022-10-04T02:34:01.614Z,10.07
2022-10-04T02:36:30.959Z,9.75
2022-10-04T02:39:05.365Z,11.18
2022-10-04T02:41:38.486Z,11.52
2022-10-04T02:44:15.605Z,9.85
2022-10-04T02:46:51.413Z,11.35
2022-10-04T02:49:33.374Z,9.10
2022-10-04T02:52:05.436Z,9.35
2022-10-04T02:54:41.658Z,8.73
2022-10-04T02:57:17.231Z,9.57
2022-10-04T02:59:46.117Z,8.93
2022-10-04T03:02:29.980Z,5.68
2022-10-04T03:05:05.898Z,8.32
2022-10-04T03:07:36.038Z,7.22
2022-10-04T03:10:11.365Z,6.70
2022-10-04T03:12:40.157Z,8.00
2022-10-04T03:15:12.433Z,8.60
2022-10-04T03:17:42.766Z,8.75
2022-10-04T03:22:47.292Z,11.98
2022-10-04T03:25:22.726Z,10.30
2022-10-04T03:28:03.382Z,8.63
2022-10-04T03:30:33.103Z,12.85
2022-10-04T03:33:01.706Z,10.77
2022-10-04T03:35:34.611Z,6.45
2022-10-04T03:38:08.931Z,8.27
2022-10-04T03:40:41.140Z,7.30
2022-10-04T03:43:13.429Z,7.60
2022-10-04T03:45:43.101Z,7.43
2022-10-04T03:48:15.545Z,10.10
2022-10-04T03:50:48.873Z,7.25
2022-10-04T03:53:29.176Z,8.15
2022-10-04T03:56:04.190Z,7.25
2022-10-04T03:58:34.272Z,9.35
2022-10-04T04:01:12.243Z,8.52
2022-10-04T04:03:55.449Z,11.63
2022-10-04T04:06:25.041Z,7.65
2022-10-04T04:08:56.681Z,8.35
2022-10-04T04:11:28.479Z,8.38
2022-10-04T04:14:05.387Z,6.97
2022-10-04T04:16:34.305Z,7.05
2022-10-04T04:19:06.786Z,7.80
2022-10-04T04:21:35.217Z,7.70
2022-10-04T04:24:08.504Z,7.93
2022-10-04T04:26:43.149Z,8.32
2022-10-04T04:29:19.454Z,7.95
2022-10-04T04:31:53.585Z,7.03
2022-10-04T04:34:25.275Z,6.63
2022-10-04T04:36:59.375Z,6.72
2022-10-04T04:39:41.495Z,7.40
2022-10-04T04:42:18.943Z,9.77
2022-10-04T04:44:50.578Z,8.23
2022-10-04T04:47:29.868Z,7.07
2022-10-04T04:50:07.773Z,11.38
2022-10-04T04:52:37.125Z,7.63
2022-10-04T04:55:07.888Z,7.10
2022-10-04T04:57:40.309Z,10.30
2022-10-04T05:00:17.355Z,9.00
2022-10-04T05:02:58.337Z,12.07
2022-10-04T05:05:28.672Z,10.55
2022-10-04T05:08:15.213Z,9.10
2022-10-04T05:10:47.248Z,7.10
2022-10-04T05:13:18.217Z,9.00
2022-10-04T05:15:48.501Z,8.80
2022-10-04T05:18:29.544Z,7.95
2022-10-04T05:21:04.191Z,7.65
2022-10-04T05:23:33.903Z,11.40
2022-10-04T05:26:04.769Z,11.75
2022-10-04T05:28:34.786Z,10.50
2022-10-04T05:31:30.070Z,12.15
2022-10-04T05:33:59.768Z,13.00
2022-10-04T05:36:47.647Z,13.52
2022-10-04T05:39:27.794Z,14.68
2022-10-04T05:42:02.536Z,14.57
2022-10-04T05:44:37.405Z,17.20
2022-10-04T05:47:09.262Z,19.77
2022-10-04T05:49:44.582Z,13.85
2022-10-04T05:52:18.147Z,12.88
2022-10-04T05:54:46.421Z,15.13
2022-10-04T05:57:33.556Z,13.75
2022-10-04T06:00:11.741Z,10.77
2022-10-04T06:03:05.579Z,14.32
2022-10-04T06:05:45.429Z,14.57
2022-10-04T06:08:24.065Z,34.28
2022-10-04T06:11:09.358Z,39.20
2022-10-04T06:14:17.862Z,46.97
2022-10-04T06:17:05.718Z,47.42
2022-10-04T06:20:07.349Z,33.55
2022-10-04T06:22:43.705Z,33.92
2022-10-04T06:25:16.315Z,23.70
2022-10-04T06:27:50.428Z,17.38
2022-10-04T06:30:21.634Z,51.17
2022-10-04T06:33:20.423Z,87.10
2022-10-04T06:36:08.802Z,21.10
2022-10-04T06:39:04.221Z,56.33
2022-10-04T06:42:05.697Z,35.50
2022-10-04T06:45:00.658Z,18.58
2022-10-04T06:47:47.851Z,15.27
2022-10-04T06:50:28.562Z,12.15
2022-10-04T06:53:12.408Z,11.15
2022-10-04T06:56:07.277Z,12.43
2022-10-04T06:59:05.860Z,11.15
2022-10-04T07:01:35.984Z,12.77
2022-10-04T07:04:14.020Z,15.80
2022-10-04T07:06:50.572Z,16.90
2022-10-04T07:09:25.291Z,12.40
2022-10-04T07:11:58.870Z,14.07
2022-10-04T07:14:32.896Z,13.52
2022-10-04T07:17:05.218Z,12.25
2022-10-04T07:19:38.643Z,10.32
2022-10-04T07:22:17.655Z,12.02
2022-10-04T07:24:57.848Z,11.40
2022-10-04T07:27:31.279Z,13.13
2022-10-04T07:30:02.345Z,15.90
2022-10-04T07:32:36.086Z,19.73
2022-10-04T07:35:15.148Z,16.98
2022-10-04T07:37:51.024Z,17.67
2022-10-04T07:40:25.533Z,17.73
2022-10-04T07:42:59.764Z,19.02
2022-10-04T07:45:32.932Z,17.13
2022-10-04T07:48:06.182Z,14.95
2022-10-04T07:50:39.562Z,14.40
2022-10-04T07:53:13.744Z,19.77
2022-10-04T07:55:51.208Z,19.35
2022-10-04T07:58:36.343Z,18.92
2022-10-04T08:01:15.645Z,18.33
2022-10-04T08:04:00.917Z,18.55
2022-10-04T08:06:36.861Z,18.02
2022-10-04T08:09:24.094Z,13.90
2022-10-04T08:12:03.368Z,12.35
2022-10-04T08:14:50.530Z,13.68
2022-10-04T08:17:28.775Z,11.20
2022-10-04T08:20:13.006Z,9.30
2022-10-04T08:22:53.463Z,15.23
2022-10-04T08:25:29.304Z,11.60
2022-10-04T08:28:22.216Z,12.30
2022-10-04T08:31:14.343Z,11.13
2022-10-04T08:34:04.381Z,10.48
2022-10-04T08:36:47.093Z,11.07
2022-10-04T08:39:35.376Z,11.93
2022-10-04T08:42:41.893Z,10.75
2022-10-04T08:45:46.692Z,11.63
2022-10-04T08:48:52.981Z,13.15
2022-10-04T08:51:52.705Z,9.20
2022-10-04T08:54:57.890Z,12.40
2022-10-04T08:57:53.897Z,12.98
2022-10-04T09:00:26.478Z,11.65
2022-10-04T09:03:26.483Z,15.63
2022-10-04T09:06:14.349Z,12.57
2022-10-04T09:09:15.385Z,10.27
2022-10-04T09:12:03.647Z,9.48
2022-10-04T09:14:59.152Z,15.73
2022-10-04T09:17:38.680Z,7.90
2022-10-04T09:20:39.345Z,8.48
2022-10-04T09:23:23.438Z,11.98
2022-10-04T09:26:06.475Z,9.43
2022-10-04T09:29:09.972Z,7.10
2022-10-04T09:32:19.946Z,5.80
2022-10-04T09:35:10.739Z,7.90
2022-10-04T09:37:51.330Z,8.10
2022-10-04T09:40:58.803Z,6.45
2022-10-04T09:43:57.392Z,5.78
2022-10-04T09:46:42.645Z,8.70
2022-10-04T09:49:33.233Z,7.88
2022-10-04T09:52:16.717Z,8.10
2022-10-04T09:55:05.168Z,9.27
2022-10-04T09:57:51.157Z,11.70
2022-10-04T10:00:23.437Z,7.32
2022-10-04T10:03:15.968Z,7.05
2022-10-04T10:05:57.553Z,10.10
2022-10-04T10:08:32.676Z,11.40
2022-10-04T10:11:26.031Z,12.55
2022-10-04T10:14:18.741Z,9.40
2022-10-04T10:17:00.090Z,8.60
2022-10-04T10:20:01.503Z,10.15
2022-10-04T10:23:07.173Z,9.13
2022-10-04T10:25:49.079Z,10.38
2022-10-04T10:28:43.144Z,6.40
2022-10-04T10:31:43.561Z,6.50
2022-10-04T10:34:53.240Z,8.40
2022-10-04T10:37:38.417Z,6.63
2022-10-04T10:40:29.686Z,10.73
2022-10-04T10:43:33.764Z,8.25
2022-10-04T10:46:11.020Z,8.52
2022-10-04T10:49:02.008Z,7.25
2022-10-04T10:51:56.085Z,6.35
2022-10-04T10:55:09.444Z,8.80
2022-10-04T10:58:05.271Z,8.30
2022-10-04T11:00:47.829Z,8.07
2022-10-04T11:03:52.835Z,7.60
2022-10-04T11:06:53.356Z,9.98
2022-10-04T11:09:51.611Z,6.97
2022-10-04T11:12:56.146Z,6.93
2022-10-04T11:16:01.255Z,7.78
2022-10-04T11:19:06.322Z,6.97
2022-10-04T11:22:07.492Z,7.25
2022-10-04T11:24:56.313Z,6.18
2022-10-04T11:27:37.867Z,6.70
2022-10-04T11:30:25.297Z,6.28
2022-10-04T11:33:40.153Z,8.38
2022-10-04T11:36:43.147Z,8.57
2022-10-04T11:39:31.516Z,7.13
2022-10-04T11:42:08.228Z,6.68
2022-10-04T11:44:55.259Z,7.13
2022-10-04T11:47:36.297Z,8.70
2022-10-04T11:50:26.450Z,10.32
2022-10-04T11:53:22.020Z,7.03
2022-10-04T11:56:20.367Z,8.15
2022-10-04T11:59:09.101Z,6.63
2022-10-04T12:02:11.153Z,7.95
2022-10-04T12:05:13.705Z,6.60
2022-10-04T12:07:58.023Z,8.80
2022-10-04T12:10:30.212Z,8.27
2022-10-04T12:13:24.683Z,8.35
2022-10-04T12:16:11.014Z,8.13
2022-10-04T12:19:08.132Z,7.57
2022-10-04T12:22:02.681Z,6.55
2022-10-04T12:25:00.367Z,6.80
2022-10-04T12:27:52.550Z,8.32
2022-10-04T12:30:31.867Z,6.50
2022-10-04T12:33:10.746Z,8.13
2022-10-04T12:35:51.957Z,6.53
2022-10-04T12:38:43.661Z,6.30
2022-10-04T12:41:25.581Z,5.70
2022-10-04T12:44:07.995Z,6.32
2022-10-04T12:46:44.978Z,5.90
2022-10-04T12:49:26.922Z,8.60
2022-10-04T12:52:03.157Z,6.15
2022-10-04T12:54:39.831Z,6.82
2022-10-04T12:57:24.281Z,5.28
2022-10-04T12:59:59.300Z,5.40
2022-10-04T13:02:52.681Z,5.80
2022-10-04T13:05:25.942Z,5.20
2022-10-04T13:08:08.666Z,5.30
2022-10-04T13:10:51.825Z,4.72
2022-10-04T13:13:50.883Z,5.43
2022-10-04T13:19:25.096Z,5.40
2022-10-04T13:22:37.668Z,5.57
2022-10-04T13:25:21.311Z,5.43
2022-10-04T13:27:58.828Z,5.07
2022-10-04T13:30:33.946Z,5.00
2022-10-04T13:33:14.844Z,4.65
2022-10-04T13:35:51.083Z,5.32
2022-10-04T13:38:50.119Z,5.20
2022-10-04T13:41:29.670Z,5.20
2022-10-04T13:44:26.232Z,5.68
2022-10-04T13:47:12.619Z,4.97
2022-10-04T13:49:55.653Z,6.10
2022-10-04T13:52:54.347Z,5.00
2022-10-04T13:55:49.908Z,6.40
2022-10-04T13:58:33.347Z,5.53
2022-10-04T14:01:31.888Z,4.90
2022-10-04T14:04:15.180Z,6.43
2022-10-04T14:07:17.055Z,6.20
2022-10-04T14:10:11.093Z,5.30
2022-10-04T14:13:08.337Z,5.07
2022-10-04T14:15:57.894Z,4.97
2022-10-04T14:21:33.015Z,5.88
2022-10-04T14:24:32.444Z,5.20
2022-10-04T14:27:44.146Z,7.15
2022-10-04T14:30:18.839Z,6.13
2022-10-04T14:33:23.162Z,5.35
2022-10-04T14:36:04.935Z,5.55
2022-10-04T14:38:49.053Z,5.53
2022-10-04T14:41:58.814Z,5.95
2022-10-04T14:44:45.319Z,6.03
2022-10-04T14:47:43.172Z,5.55
2022-10-04T14:50:27.297Z,7.07
2022-10-04T14:53:11.724Z,5.45
2022-10-04T14:56:20.816Z,6.18
2022-10-04T14:58:59.063Z,8.15
2022-10-04T15:01:29.274Z,7.38
2022-10-04T15:04:25.855Z,7.20
2022-10-04T15:06:58.310Z,6.03
2022-10-04T15:09:52.438Z,7.45
2022-10-04T15:13:12.606Z,6.50
2022-10-04T15:16:04.364Z,5.90
2022-10-04T15:18:46.766Z,5.70
2022-10-04T15:21:41.036Z,6.00
2022-10-04T15:24:24.444Z,10.85
2022-10-04T15:27:21.382Z,27.75
2022-10-04T15:29:59.575Z,27.42
2022-10-04T15:32:35.784Z,15.73
2022-10-04T15:35:28.198Z,7.30
2022-10-04T15:38:00.421Z,5.95
2022-10-04T15:40:42.028Z,7.38
2022-10-04T15:43:22.104Z,8.13
2022-10-04T15:46:26.961Z,8.65
2022-10-04T15:49:30.371Z,6.40
2022-10-04T15:52:19.750Z,13.80
2022-10-04T15:55:09.513Z,10.68
2022-10-04T15:58:02.519Z,10.13
2022-10-04T16:00:48.124Z,7.38
2022-10-04T16:03:29.338Z,6.75
2022-10-04T16:06:03.921Z,25.65
2022-10-04T16:08:47.108Z,27.45
2022-10-04T16:11:46.101Z,18.25
2022-10-04T16:14:31.096Z,6.80
2022-10-04T16:17:35.773Z,5.95
2022-10-04T16:20:21.720Z,5.75
2022-10-04T16:23:26.385Z,5.95
2022-10-04T16:25:56.041Z,6.05
2022-10-04T16:29:09.277Z,6.27
2022-10-04T16:31:54.733Z,11.85
2022-10-04T16:34:41.544Z,7.72
2022-10-04T16:37:27.352Z,9.27
2022-10-04T16:40:03.272Z,7.07
2022-10-04T16:42:51.197Z,6.50
2022-10-04T16:45:37.314Z,11.27
2022-10-04T16:48:15.364Z,25.85
2022-10-04T16:51:22.426Z,19.67
2022-10-04T16:53:56.822Z,14.88
2022-10-04T16:56:27.150Z,7.50
2022-10-04T16:59:01.501Z,7.03
2022-10-04T17:02:03.186Z,29.67
2022-10-04T17:05:00.289Z,7.10
2022-10-04T17:07:40.241Z,6.00
2022-10-04T17:10:21.189Z,22.52
2022-10-04T17:12:57.477Z,28.48
2022-10-04T17:15:38.604Z,17.90
2022-10-04T17:18:18.725Z,8.50
2022-10-04T17:20:55.451Z,7.55
2022-10-04T17:23:38.228Z,34.30
2022-10-04T17:26:18.071Z,62.22
2022-10-04T17:28:56.343Z,17.00
2022-10-04T17:31:34.956Z,8.65
2022-10-04T17:34:16.584Z,10.70
2022-10-04T17:36:49.079Z,9.20
2022-10-04T17:39:34.770Z,10.35
2022-10-04T17:42:30.543Z,7.22
2022-10-04T17:45:16.074Z,7.60
2022-10-04T17:48:12.577Z,8.07
2022-10-04T17:51:05.437Z,6.80
2022-10-04T17:53:55.356Z,8.73
2022-10-04T17:56:31.621Z,7.47
2022-10-04T17:59:00.528Z,8.13
2022-10-04T18:01:35.548Z,8.30
2022-10-04T18:04:15.266Z,10.27
2022-10-04T18:06:49.578Z,7.75
2022-10-04T18:09:24.011Z,9.27
2022-10-04T18:11:57.294Z,10.73
2022-10-04T18:14:47.399Z,10.95
2022-10-04T18:17:33.210Z,8.35
2022-10-04T18:20:20.622Z,10.02
2022-10-04T18:22:59.435Z,7.93
2022-10-04T18:25:30.244Z,8.85
2022-10-04T18:28:11.879Z,16.98
2022-10-04T18:30:54.006Z,10.63
2022-10-04T18:33:26.612Z,9.18
2022-10-04T18:36:04.535Z,9.07
2022-10-04T18:38:35.999Z,9.48
2022-10-04T18:41:13.531Z,10.95
2022-10-04T18:43:53.325Z,10.02
2022-10-04T18:46:23.235Z,15.23
2022-10-04T18:48:56.716Z,12.88
2022-10-04T18:51:29.486Z,13.60
2022-10-04T18:54:13.526Z,28.63
2022-10-04T18:57:00.240Z,27.65
2022-10-04T18:59:57.045Z,15.27
2022-10-04T19:02:35.208Z,10.65
2022-10-04T19:05:15.375Z,10.98
2022-10-04T19:07:52.517Z,12.73
2022-10-04T19:10:26.929Z,10.80
2022-10-04T19:13:07.621Z,13.32
2022-10-04T19:16:12.417Z,10.57
2022-10-04T19:19:10.840Z,12.55
2022-10-04T19:21:48.699Z,12.50
2022-10-04T19:24:46.287Z,10.88
2022-10-04T19:27:25.968Z,12.45
2022-10-04T19:30:10.990Z,12.05
2022-10-04T19:32:56.366Z,15.85
2022-10-04T19:35:40.316Z,20.50
2022-10-04T19:38:21.880Z,14.80
2022-10-04T19:40:54.699Z,13.52
2022-10-04T19:46:29.023Z,17.90
2022-10-04T19:48:59.108Z,13.27
2022-10-04T19:51:33.925Z,16.42
2022-10-04T19:54:15.410Z,14.00
2022-10-04T19:56:48.222Z,15.68
2022-10-04T19:59:19.374Z,11.00
2022-10-04T20:01:48.693Z,16.00
2022-10-04T20:04:38.684Z,13.07
2022-10-04T20:07:13.113Z,29.67
2022-10-04T20:09:54.584Z,28.00
2022-10-04T20:12:32.592Z,16.02
2022-10-04T20:15:44.669Z,13.20
2022-10-04T20:18:52.516Z,12.30
2022-10-04T20:21:32.093Z,62.92
2022-10-04T20:24:01.840Z,71.00
2022-10-04T20:26:56.019Z,27.63
2022-10-04T20:30:07.143Z,18.80
2022-10-04T20:32:54.774Z,16.25
2022-10-04T20:36:09.816Z,34.65
2022-10-04T20:38:54.095Z,43.42
2022-10-04T20:42:16.981Z,30.42
2022-10-04T20:44:56.761Z,15.57
2022-10-04T20:47:44.586Z,13.50
2022-10-04T20:50:32.879Z,14.52
2022-10-04T20:53:06.252Z,14.32
2022-10-04T20:55:38.956Z,14.18
2022-10-04T20:58:32.361Z,18.65
2022-10-04T21:01:11.781Z,13.30
2022-10-04T21:03:40.619Z,16.23
2022-10-04T21:06:10.988Z,13.30
2022-10-04T21:08:41.069Z,12.30
2022-10-04T21:11:20.144Z,16.63
2022-10-04T21:13:52.221Z,14.23
2022-10-04T21:16:44.908Z,12.13
2022-10-04T21:19:46.012Z,16.92
2022-10-04T21:22:34.889Z,14.95
2022-10-04T21:25:19.508Z,18.50
2022-10-04T21:27:49.139Z,17.65
2022-10-04T21:30:19.823Z,27.17
2022-10-04T21:32:48.064Z,18.48
2022-10-04T21:35:16.801Z,15.15
2022-10-04T21:37:45.088Z,14.07
2022-10-04T21:40:15.116Z,12.10
2022-10-04T21:42:43.399Z,15.00
2022-10-04T21:45:13.509Z,12.80
2022-10-04T21:47:42.385Z,11.38
2022-10-04T21:50:10.852Z,15.60
2022-10-04T21:52:39.775Z,17.83
2022-10-04T21:55:10.633Z,16.92
2022-10-04T21:57:39.463Z,13.77
2022-10-04T22:00:09.125Z,30.00
2022-10-04T22:02:42.631Z,59.38
2022-10-04T22:05:10.964Z,46.00
2022-10-04T22:07:39.491Z,19.70
2022-10-04T22:10:08.344Z,38.42
2022-10-04T22:12:37.037Z,21.30
2022-10-04T22:15:06.753Z,18.38
2022-10-04T22:17:35.253Z,16.45
2022-10-04T22:20:06.172Z,14.80
2022-10-04T22:25:16.201Z,15.05
2022-10-04T22:27:44.492Z,14.95
2022-10-04T22:30:21.608Z,20.02
2022-10-04T22:32:50.545Z,16.20
2022-10-04T22:35:21.885Z,15.77
2022-10-04T22:37:51.061Z,13.65
2022-10-04T22:40:21.956Z,15.35
2022-10-04T22:42:55.422Z,18.15
2022-10-04T22:45:26.443Z,16.00
2022-10-04T22:47:56.750Z,14.48
2022-10-04T22:52:58.621Z,14.07
2022-10-04T22:55:27.714Z,12.57
2022-10-04T22:57:56.393Z,12.95
2022-10-04T23:00:25.057Z,14.65
2022-10-04T23:02:53.420Z,14.68
2022-10-04T23:05:23.033Z,12.07
2022-10-04T23:07:53.018Z,13.40
2022-10-04T23:10:22.034Z,13.32
2022-10-04T23:12:50.859Z,13.20
2022-10-04T23:15:21.372Z,13.57
2022-10-04T23:17:55.375Z,14.70
2022-10-04T23:20:24.654Z,11.95
2022-10-04T23:22:56.488Z,12.23
2022-10-04T23:25:28.796Z,11.95
2022-10-04T23:27:59.722Z,16.33
2022-10-04T23:30:28.937Z,14.00
2022-10-04T23:33:00.881Z,10.45
2022-10-04T23:35:34.268Z,10.18
2022-10-04T23:38:07.073Z,10.77
2022-10-04T23:40:35.960Z,10.35
2022-10-04T23:43:05.480Z,11.63
2022-10-04T23:45:35.592Z,11.38
2022-10-04T23:48:03.969Z,12.02
2022-10-04T23:50:35.201Z,9.63
2022-10-04T23:53:11.624Z,11.45
2022-10-04T23:55:42.988Z,12.45
2022-10-04T23:58:16.289Z,12.77
